Time;durP1;ratioP1;P1;durP2;ratioP2;P2;SDS_P1;SDS_P2;PMS_P1;PMS_P2;Temp;Humidity;BMP_temperature;BMP_pressure;BME280_temperature;BME280_humidity;BME280_pressure;Samples;Min_cycle;Max_cycle;Signal;HPM_P1;HPM_P2
2021/07/09 08:24:25;;;;;;;14.20;3.70;;;;;;;27.24;63.27;101792.28;1649763;85;21062;-81
2021/07/09 08:26:52;;;;;;;13.65;3.90;;;;;;;27.36;63.68;101794.80;1634542;87;21126;-81
2021/07/09 08:29:21;;;;;;;7.30;3.40;;;;;;;27.44;63.54;101796.09;1629048;88;37422;-81
2021/07/09 08:31:49;;;;;;;8.93;3.15;;;;;;;27.52;61.73;101791.16;1629318;88;21004;-80
2021/07/09 08:34:17;;;;;;;10.98;3.87;;;;;;;27.58;60.97;101796.58;1629411;88;21048;-80
2021/07/09 08:36:49;;;;;;;3.52;2.90;;;;;;;27.64;58.31;101791.01;1629079;88;21001;-81
2021/07/09 08:39:16;;;;;;;14.80;5.10;;;;;;;27.70;58.31;101792.92;1629356;88;21207;-80
2021/07/09 08:41:48;;;;;;;7.85;3.47;;;;;;;27.78;58.71;101795.52;1646035;86;21016;-81
2021/07/09 08:44:20;;;;;;;9.30;3.90;;;;;;;27.84;53.65;101791.59;1631444;87;21004;-81
2021/07/09 08:46:47;;;;;;;23.73;5.45;;;;;;;27.88;53.72;101786.72;1629370;88;21051;-81
2021/07/09 08:49:20;;;;;;;20.37;3.80;;;;;;;27.97;54.71;101787.42;1629138;88;21023;-80
2021/07/09 08:51:46;;;;;;;9.33;3.10;;;;;;;28.02;55.84;101779.67;1629292;88;21173;-81
2021/07/09 08:54:15;;;;;;;8.10;3.10;;;;;;;28.07;54.25;101778.14;1629968;88;20991;-81
2021/07/09 08:56:42;;;;;;;20.57;4.50;;;;;;;28.13;54.70;101782.72;1630082;88;21112;-81
2021/07/09 08:59:09;;;;;;;10.32;2.67;;;;;;;28.22;55.46;101784.76;1630519;88;21043;-82
2021/07/09 09:01:51;;;;;;;11.85;4.22;;;;;;;28.31;55.21;101780.44;1629547;88;20975;-82
2021/07/09 09:04:34;;;;;;;10.48;3.52;;;;;;;28.43;56.48;101786.63;1629543;88;21554;-81
2021/07/09 09:07:04;;;;;;;14.03;3.67;;;;;;;28.53;56.29;101788.45;1628691;88;21039;-80
2021/07/09 09:09:35;;;;;;;15.48;4.97;;;;;;;28.61;54.22;101779.81;1629346;88;20991;-78
2021/07/09 09:12:15;;;;;;;12.63;4.67;;;;;;;28.65;51.44;101779.78;1629336;88;21023;-78
2021/07/09 09:14:48;;;;;;;14.70;3.30;;;;;;;28.70;52.07;101780.53;1629291;88;21036;-79
2021/07/09 09:17:33;;;;;;;14.63;3.22;;;;;;;28.76;48.95;101780.58;1629516;88;21159;-81
2021/07/09 09:20:16;;;;;;;13.93;3.02;;;;;;;28.83;46.69;101779.30;1629318;88;21628;-81
2021/07/09 09:22:54;;;;;;;14.53;2.90;;;;;;;28.88;47.17;101775.02;1629473;88;21043;-81
2021/07/09 09:25:31;;;;;;;8.60;3.12;;;;;;;28.92;48.50;101775.97;1629412;88;21098;-81
2021/07/09 09:28:08;;;;;;;4.80;2.80;;;;;;;28.99;49.71;101770.16;1629150;88;21075;-83
2021/07/09 09:30:36;;;;;;;10.82;3.33;;;;;;;29.05;50.41;101770.22;1629317;88;21777;-83
2021/07/09 09:33:07;;;;;;;7.20;3.15;;;;;;;29.13;51.12;101763.39;1629028;88;21008;-82
2021/07/09 09:35:38;;;;;;;9.25;3.00;;;;;;;29.24;51.12;101768.69;1629557;88;21050;-78
2021/07/09 09:38:11;;;;;;;17.07;4.15;;;;;;;29.34;50.26;101761.17;1629101;88;21029;-79
2021/07/09 09:40:40;;;;;;;14.47;3.60;;;;;;;29.43;50.52;101756.47;1634646;86;21007;-85
2021/07/09 09:43:14;;;;;;;9.63;3.37;;;;;;;29.51;51.38;101757.16;1656143;86;21805;-84
2021/07/09 09:45:42;;;;;;;8.35;3.30;;;;;;;29.56;50.18;101752.02;1655895;86;21530;-80
2021/07/09 09:48:12;;;;;;;9.00;3.60;;;;;;;29.58;50.25;101749.96;1655850;86;21165;-81
2021/07/09 09:50:47;;;;;;;11.38;3.17;;;;;;;29.63;51.17;101754.72;1656038;86;20892;-81
2021/07/09 09:53:15;;;;;;;6.60;2.95;;;;;;;29.68;51.34;101757.11;1655914;86;21023;-82
2021/07/09 09:55:43;;;;;;;5.80;3.20;;;;;;;29.78;49.84;101754.05;1656177;86;21179;-78
2021/07/09 09:58:18;;;;;;;13.32;3.37;;;;;;;29.80;50.00;101750.69;1655898;86;21554;-80
2021/07/09 10:00:49;;;;;;;7.58;2.60;;;;;;;29.85;50.53;101745.06;1655997;86;21098;-81
2021/07/09 10:03:16;;;;;;;6.65;3.00;;;;;;;29.93;49.48;101749.42;1655681;86;21015;-83
2021/07/09 10:05:46;;;;;;;7.20;3.10;;;;;;;30.40;47.45;101746.66;1656090;86;21138;-81
2021/07/09 10:08:20;;;;;;;10.13;2.90;;;;;;;31.03;46.43;101747.05;1656208;86;21535;-80
2021/07/09 10:10:48;;;;;;;7.55;2.80;;;;;;;31.48;45.45;101736.71;1656032;86;21003;-78
2021/07/09 10:13:17;;;;;;;8.15;2.70;;;;;;;32.08;43.97;101739.13;1656331;86;21031;-79
2021/07/09 10:15:48;;;;;;;;;;;;;;;32.25;44.58;101733.03;1658351;86;21071;-77
2021/07/09 10:18:15;;;;;;;8.43;2.85;;;;;;;32.36;44.33;101730.14;1656174;86;20130;-79
2021/07/09 10:20:48;;;;;;;7.70;2.90;;;;;;;32.52;42.69;101730.94;1655979;86;21178;-80
2021/07/09 10:23:19;;;;;;;6.05;2.50;;;;;;;32.56;41.56;101732.16;1655851;86;21209;-82
2021/07/09 10:25:50;;;;;;;7.75;3.00;;;;;;;32.29;41.89;101731.53;1664621;86;21129;-78
2021/07/09 10:28:20;;;;;;;6.55;2.37;;;;;;;32.10;42.25;101731.16;1665520;86;21447;-79
2021/07/09 10:30:47;;;;;;;15.83;3.42;;;;;;;31.95;42.54;101727.41;1641311;86;21026;-80
2021/07/09 10:33:36;;;;;;;5.60;2.80;;;;;;;31.78;42.06;101720.89;1660592;85;21166;-80
2021/07/09 10:36:27;;;;;;;4.53;2.17;;;;;;;31.66;41.45;101711.87;1660867;85;21007;-79
2021/07/09 10:38:55;;;;;;;3.12;2.55;;;;;;;31.60;41.64;101715.42;1648534;85;21003;-80
2021/07/09 10:41:23;;;;;;;9.13;2.95;;;;;;;31.44;41.89;101708.65;1660217;86;20951;-79
2021/07/09 10:44:16;;;;;;;16.85;4.10;;;;;;;31.35;43.80;101711.78;1641250;86;21251;-80
2021/07/09 10:46:41;;;;;;;8.10;2.60;;;;;;;31.31;44.68;101708.70;1668594;85;21177;-79
2021/07/09 10:49:09;;;;;;;4.62;2.60;;;;;;;31.27;44.23;101705.33;1664082;85;20991;-78
2021/07/09 10:51:50;;;;;;;4.95;2.10;;;;;;;31.23;44.23;101698.73;1663016;85;21117;-78
2021/07/09 10:54:30;;;;;;;7.33;2.87;;;;;;;31.13;45.51;101700.52;1662457;85;21569;-81
2021/07/09 10:57:21;;;;;;;19.62;2.45;;;;;;;31.08;44.69;101697.63;1662929;86;20956;-83
2021/07/09 11:00:23;;;;;;;9.15;2.58;;;;;;;31.04;44.50;101696.94;1666897;85;21160;-79
2021/07/09 11:03:04;;;;;;;13.62;2.50;;;;;;;31.01;44.26;101693.34;1663089;85;20932;-80
2021/07/09 11:05:52;;;;;;;27.62;3.90;;;;;;;31.00;43.07;101693.02;1663060;84;20912;-80
2021/07/09 11:08:39;;;;;;;10.38;2.95;;;;;;;30.95;44.26;101695.80;1663139;85;21522;-80
2021/07/09 11:11:27;;;;;;;13.50;3.10;;;;;;;30.97;44.52;101688.08;1663028;85;20964;-80
2021/07/09 11:14:04;;;;;;;6.75;2.52;;;;;;;30.97;43.89;101690.77;1663006;84;21174;-82
2021/07/09 11:16:36;;;;;;;6.28;2.40;;;;;;;30.86;42.99;101697.55;1662974;84;20967;-84
2021/07/09 11:19:12;;;;;;;8.78;2.50;;;;;;;30.80;44.59;101696.53;1663263;86;20960;-80
2021/07/09 11:21:44;;;;;;;8.33;2.55;;;;;;;30.92;43.96;101692.17;1662916;86;20939;-78
2021/07/09 11:24:20;;;;;;;9.80;2.75;;;;;;;30.97;44.60;101690.25;1668319;83;21073;-80
2021/07/09 11:26:58;;;;;;;31.07;5.08;;;;;;;30.93;43.54;101691.15;1691099;84;21160;-81
2021/07/09 11:29:35;;;;;;;10.03;3.33;;;;;;;30.95;45.53;101691.78;1691324;84;20935;-85
2021/07/09 11:32:10;;;;;;;11.55;2.90;;;;;;;31.04;44.88;101691.06;1691338;84;20958;-78
2021/07/09 11:34:47;;;;;;;9.95;2.55;;;;;;;31.24;44.98;101701.19;1692125;83;21477;-77
2021/07/09 11:37:21;;;;;;;11.43;3.10;;;;;;;31.68;43.00;101699.59;1691609;84;21010;-79
2021/07/09 11:39:53;;;;;;;5.42;2.62;;;;;;;31.93;41.25;101695.11;1691376;83;21173;-78
2021/07/09 11:42:22;;;;;;;12.35;3.02;;;;;;;32.03;41.30;101695.97;1690978;83;20898;-78
2021/07/09 11:44:57;;;;;;;9.83;2.80;;;;;;;31.92;40.98;101699.65;1691405;83;20994;-83
2021/07/09 11:47:31;;;;;;;10.08;2.60;;;;;;;31.67;41.58;101694.74;1691134;84;21022;-78
2021/07/09 11:50:13;;;;;;;7.03;2.92;;;;;;;31.47;41.15;101707.39;1691536;84;21690;-77
2021/07/09 11:52:46;;;;;;;9.38;2.65;;;;;;;31.38;41.97;101694.75;1691353;84;21156;-78
2021/07/09 11:55:18;;;;;;;21.02;4.47;;;;;;;31.24;41.79;101695.03;1689115;84;20977;-80
2021/07/09 11:57:47;;;;;;;7.45;2.42;;;;;;;31.23;41.84;101698.22;1691466;84;21081;-83
2021/07/09 12:00:16;;;;;;;49.70;6.95;;;;;;;31.63;40.18;101697.55;1690854;84;21196;-78
2021/07/09 12:02:46;;;;;;;20.02;4.30;;;;;;;31.88;39.03;101695.74;1691282;84;20973;-81
2021/07/09 12:05:18;;;;;;;5.92;2.62;;;;;;;31.94;39.88;101692.19;1691202;84;21148;-82
2021/07/09 12:07:51;;;;;;;6.67;2.30;;;;;;;31.92;38.70;101694.80;1691051;83;21120;-81
2021/07/09 12:10:20;;;;;;;6.12;2.10;;;;;;;31.82;39.87;101695.78;1671517;84;20922;-81
2021/07/09 12:12:53;;;;;;;37.78;5.10;;;;;;;31.76;39.76;101684.05;1691147;84;20985;-78
2021/07/09 12:15:31;;;;;;;18.37;5.60;;;;;;;31.64;39.22;101679.59;1691172;84;20959;-83
2021/07/09 12:18:08;;;;;;;6.67;3.35;;;;;;;31.61;40.68;101680.84;1690700;84;21425;-78
2021/07/09 12:20:42;;;;;;;19.98;3.22;;;;;;;31.58;40.36;101675.08;1694570;84;20961;-79
2021/07/09 12:23:16;;;;;;;4.50;2.25;;;;;;;31.52;39.42;101674.60;1691178;84;20875;-83
2021/07/09 12:25:55;;;;;;;9.98;2.50;;;;;;;31.39;38.83;101674.11;1690742;83;20996;-81
2021/07/09 12:28:26;;;;;;;11.43;2.62;;;;;;;31.24;39.44;101675.70;1691152;83;20990;-81
2021/07/09 12:30:55;;;;;;;7.65;2.70;;;;;;;31.21;40.63;101673.45;1691348;84;21146;-79
2021/07/09 12:33:30;;;;;;;10.35;2.72;;;;;;;31.25;40.02;101671.17;1692283;84;20974;-78
2021/07/09 12:36:07;;;;;;;17.42;3.20;;;;;;;31.20;39.75;101670.48;1693249;84;21482;-82
2021/07/09 12:38:37;;;;;;;15.53;2.55;;;;;;;31.08;39.40;101671.36;1693307;84;20919;-79
2021/07/09 12:41:07;;;;;;;13.50;3.77;;;;;;;31.01;39.27;101674.57;1692372;84;21029;-81
2021/07/09 12:43:52;;;;;;;6.85;2.00;;;;;;;31.01;40.32;101665.19;1691719;84;21328;-79
2021/07/09 12:46:23;;;;;;;7.80;2.40;;;;;;;31.28;37.95;101664.87;1667556;84;20981;-76
2021/07/09 12:49:05;;;;;;;17.87;3.47;;;;;;;31.76;37.80;101665.27;1691392;84;21064;-76
2021/07/09 12:51:43;;;;;;;10.50;2.40;;;;;;;32.45;36.80;101661.13;1691249;83;21520;-80
2021/07/09 12:54:16;;;;;;;13.35;2.72;;;;;;;33.11;34.81;101658.34;1691196;84;20976;-79
2021/07/09 12:56:48;;;;;;;3.42;2.10;;;;;;;33.35;34.69;101652.02;1691110;84;21887;-77
2021/07/09 12:59:21;;;;;;;8.80;2.80;;;;;;;33.12;34.07;101650.58;1671880;84;20993;-79
2021/07/09 13:02:08;;;;;;;13.53;2.27;;;;;;;32.64;34.18;101653.16;1690995;83;21547;-77
2021/07/09 13:04:38;;;;;;;6.75;2.08;;;;;;;32.13;35.08;101654.72;1690824;84;20926;-78
2021/07/09 13:07:17;;;;;;;2.55;2.33;;;;;;;31.79;36.36;101654.09;1691239;84;20930;-79
2021/07/09 13:09:48;;;;;;;10.10;2.35;;;;;;;31.61;35.78;101646.48;1687101;83;22755;-82
2021/07/09 13:12:30;;;;;;;7.47;2.27;;;;;;;31.61;35.11;101641.94;1691227;83;21117;-79
2021/07/09 13:15:03;;;;;;;8.40;2.55;;;;;;;31.50;35.99;101641.27;1691386;84;21039;-80
2021/07/09 13:17:34;;;;;;;19.85;3.30;;;;;;;31.39;36.43;101640.07;1691320;84;21041;-80
2021/07/09 13:20:10;;;;;;;4.33;2.00;;;;;;;31.36;36.51;101632.97;1691313;84;20977;-81
2021/07/09 13:22:49;;;;;;;6.25;2.40;;;;;;;31.27;35.88;101630.23;1691168;83;21223;-80
2021/07/09 13:25:22;;;;;;;9.75;2.55;;;;;;;31.09;36.22;101631.42;1691061;83;21559;-80
2021/07/09 13:28:08;;;;;;;4.58;2.10;;;;;;;31.02;36.11;101634.67;1691293;84;21263;-79
2021/07/09 13:30:36;;;;;;;8.18;2.40;;;;;;;31.08;36.19;101628.45;1690799;84;21029;-83
2021/07/09 13:33:11;;;;;;;4.92;2.33;;;;;;;31.14;35.81;101635.13;1691181;84;21010;-82
2021/07/09 13:35:39;;;;;;;2.83;1.80;;;;;;;31.05;36.00;101625.66;1691333;84;21160;-83
2021/07/09 13:38:07;;;;;;;4.30;2.25;;;;;;;30.93;35.84;101622.79;1691365;84;21627;-80
2021/07/09 13:40:34;;;;;;;6.50;2.00;;;;;;;30.87;35.87;101618.79;1691359;84;21006;-80
2021/07/09 13:43:05;;;;;;;17.70;3.70;;;;;;;30.82;36.20;101614.59;1691352;84;21084;-77
2021/07/09 13:45:34;;;;;;;8.03;2.30;;;;;;;30.78;36.96;101612.84;1689169;84;21049;-80
2021/07/09 13:48:02;;;;;;;10.50;2.70;;;;;;;30.77;37.19;101619.23;1691278;84;21202;-79
2021/07/09 13:50:31;;;;;;;8.15;2.83;;;;;;;30.78;36.12;101614.70;1691021;84;20899;-80
2021/07/09 13:52:58;;;;;;;5.25;2.02;;;;;;;30.79;35.42;101613.13;1691514;84;21014;-76
2021/07/09 13:55:25;;;;;;;12.43;2.45;;;;;;;30.87;35.71;101614.77;1691250;84;21010;-80
2021/07/09 13:57:52;;;;;;;8.65;2.37;;;;;;;30.95;35.26;101623.97;1691314;84;20990;-80
2021/07/09 14:00:19;;;;;;;8.10;2.20;;;;;;;30.99;34.99;101618.47;1691230;84;21528;-82
2021/07/09 14:02:47;;;;;;;11.18;2.40;;;;;;;31.26;35.35;101621.36;1691142;84;21077;-80
2021/07/09 14:05:13;;;;;;;3.50;2.10;;;;;;;31.43;34.13;101621.69;1691323;84;20946;-81
2021/07/09 14:07:40;;;;;;;3.72;2.30;;;;;;;31.36;34.74;101619.55;1691134;84;20998;-79
2021/07/09 14:10:08;;;;;;;6.47;2.10;;;;;;;31.20;35.35;101618.19;1691388;84;21032;-82
2021/07/09 14:12:36;;;;;;;11.28;2.65;;;;;;;30.98;35.00;101611.48;1691426;84;21158;-82
2021/07/09 14:15:04;;;;;;;12.68;3.15;;;;;;;30.75;35.87;101613.27;1691330;84;20954;-82
2021/07/09 14:17:31;;;;;;;12.05;3.17;;;;;;;30.64;36.33;101619.27;1691452;84;20990;-82
2021/07/09 14:19:57;;;;;;;7.97;2.37;;;;;;;30.54;37.42;101618.07;1691267;84;20966;-78
2021/07/09 14:22:25;;;;;;;7.25;1.92;;;;;;;30.48;36.37;101614.34;1691316;84;21521;-83
2021/07/09 14:24:51;;;;;;;10.40;2.33;;;;;;;30.38;36.35;101621.44;1692854;83;21779;-80
2021/07/09 14:27:19;;;;;;;13.50;2.47;;;;;;;30.28;37.25;101621.56;1712608;82;20917;-78
2021/07/09 14:29:48;;;;;;;4.45;2.45;;;;;;;30.21;37.47;101614.88;1712906;83;20953;-81
2021/07/09 14:32:17;;;;;;;4.85;2.27;;;;;;;30.12;37.32;101611.28;1712837;83;20961;-79
2021/07/09 14:34:46;;;;;;;15.45;7.60;;;;;;;30.04;37.91;101611.47;1712669;83;21163;-84
2021/07/09 14:37:12;;;;;;;8.73;3.17;;;;;;;29.98;38.05;101616.30;1712779;83;21202;-81
2021/07/09 14:39:39;;;;;;;6.12;2.70;;;;;;;29.95;37.62;101606.02;1712884;83;20898;-79
2021/07/09 14:42:07;;;;;;;5.47;2.65;;;;;;;29.90;37.75;101614.13;1713058;81;20993;-82
2021/07/09 14:44:35;;;;;;;3.72;2.42;;;;;;;29.84;38.17;101610.94;1712597;83;20996;-80
2021/07/09 14:47:02;;;;;;;8.63;2.67;;;;;;;29.76;38.03;101611.12;1712915;83;21011;-81
2021/07/09 14:49:29;;;;;;;8.98;2.30;;;;;;;29.73;38.01;101608.02;1712949;83;21448;-82
2021/07/09 14:51:56;;;;;;;7.40;2.77;;;;;;;29.68;38.03;101606.45;1712680;83;21505;-84
2021/07/09 14:54:23;;;;;;;17.95;2.95;;;;;;;29.68;37.81;101596.58;1712915;83;20985;-84
2021/07/09 14:56:51;;;;;;;4.97;2.27;;;;;;;29.66;38.68;101597.30;1713074;83;21896;-86
2021/07/09 14:59:18;;;;;;;8.00;2.75;;;;;;;29.77;38.87;101590.00;1713191;83;20858;-82
2021/07/09 15:01:44;;;;;;;6.65;3.20;;;;;;;30.06;38.89;101592.82;1712870;83;21147;-81
2021/07/09 15:04:14;;;;;;;7.95;3.15;;;;;;;30.03;38.15;101595.11;1712654;82;21039;-80
2021/07/09 15:06:41;;;;;;;14.23;3.20;;;;;;;29.94;38.44;101589.13;1712464;83;21012;-81
2021/07/09 15:09:08;;;;;;;15.13;2.50;;;;;;;29.86;37.81;101583.98;1712494;83;20902;-83
2021/07/09 15:11:35;;;;;;;12.95;2.87;;;;;;;29.78;38.98;101585.47;1712807;83;20945;-85
2021/07/09 15:14:02;;;;;;;15.88;3.02;;;;;;;29.75;39.11;101587.22;1684749;83;21843;-82
2021/07/09 15:16:30;;;;;;;9.68;2.85;;;;;;;29.68;38.75;101589.06;1712702;82;21500;-81
2021/07/09 15:18:57;;;;;;;10.55;3.30;;;;;;;29.58;37.95;101585.98;1712732;83;20949;-81
2021/07/09 15:21:24;;;;;;;8.10;3.05;;;;;;;29.48;37.75;101582.87;1712696;83;21053;-79
2021/07/09 15:23:52;;;;;;;9.85;3.30;;;;;;;29.43;38.37;101583.47;1712660;83;21059;-84
2021/07/09 15:26:19;;;;;;;8.38;3.20;;;;;;;29.38;38.77;101586.77;1712241;83;21094;-83
2021/07/09 15:28:46;;;;;;;6.92;2.90;;;;;;;29.70;38.09;101587.85;1712073;83;21040;-81
2021/07/09 15:31:12;;;;;;;11.50;3.20;;;;;;;29.88;37.47;101589.95;1711906;83;21833;-81
2021/07/09 15:33:39;;;;;;;6.12;3.00;;;;;;;29.87;37.83;101583.77;1712178;83;21001;-80
2021/07/09 15:36:07;;;;;;;4.33;2.62;;;;;;;29.79;37.71;101587.96;1712231;83;21412;-83
2021/07/09 15:38:34;;;;;;;17.35;3.10;;;;;;;29.76;37.63;101588.88;1712344;83;21194;-80
2021/07/09 15:41:01;;;;;;;15.40;3.00;;;;;;;29.71;38.18;101589.98;1712123;83;21388;-81
2021/07/09 15:43:27;;;;;;;13.80;3.47;;;;;;;29.59;38.23;101589.78;1712186;83;20941;-83
2021/07/09 15:45:54;;;;;;;8.58;2.75;;;;;;;29.52;38.35;101590.78;1712114;83;21063;-83
2021/07/09 15:48:21;;;;;;;8.73;3.10;;;;;;;29.43;39.07;101596.84;1712245;83;21666;-83
2021/07/09 15:50:50;;;;;;;8.90;3.08;;;;;;;29.26;39.08;101594.23;1712372;83;20941;-80
2021/07/09 15:53:17;;;;;;;6.20;3.33;;;;;;;29.08;39.56;101591.23;1712373;83;21035;-87
2021/07/09 15:55:48;;;;;;;6.70;3.08;;;;;;;28.94;39.28;101591.72;1712251;83;21004;-83
2021/07/09 15:58:17;;;;;;;14.80;3.35;;;;;;;28.81;39.52;101590.31;1711859;83;21008;-83
2021/07/09 16:00:47;;;;;;;6.62;2.80;;;;;;;28.75;40.10;101585.23;1712163;83;21424;-82
2021/07/09 16:03:15;;;;;;;7.28;2.77;;;;;;;28.71;39.64;101591.19;1712444;83;21500;-86
2021/07/09 16:05:43;;;;;;;7.20;3.00;;;;;;;28.66;40.15;101584.25;1712490;83;20993;-82
2021/07/09 16:08:11;;;;;;;14.05;3.20;;;;;;;28.59;40.42;101585.52;1711994;83;21139;-80
2021/07/09 16:10:39;;;;;;;8.75;3.20;;;;;;;28.53;40.31;101588.98;1711854;83;21087;-83
2021/07/09 16:13:05;;;;;;;11.53;3.00;;;;;;;28.42;40.19;101582.86;1712165;83;20988;-82
2021/07/09 16:15:32;;;;;;;9.63;3.35;;;;;;;28.36;39.94;101585.81;1712523;83;21156;-82
2021/07/09 16:18:01;;;;;;;12.73;3.08;;;;;;;28.27;39.87;101578.94;1712102;83;22141;-82
2021/07/09 16:20:29;;;;;;;10.95;3.20;;;;;;;28.20;40.19;101583.44;1712197;83;20941;-81
2021/07/09 16:22:56;;;;;;;7.92;3.25;;;;;;;28.13;40.06;101584.39;1712151;83;21025;-82
2021/07/09 16:25:22;;;;;;;7.42;2.90;;;;;;;28.04;40.68;101589.02;1712453;83;21499;-84
2021/07/09 16:27:49;;;;;;;14.35;3.70;;;;;;;27.99;41.10;101582.59;1725413;83;21192;-83
2021/07/09 16:30:16;;;;;;;5.95;3.30;;;;;;;27.97;41.22;101580.63;1725242;83;21581;-84
2021/07/09 16:32:43;;;;;;;10.78;3.52;;;;;;;27.96;41.56;101584.30;1725222;83;20894;-83
2021/07/09 16:35:11;;;;;;;12.50;3.12;;;;;;;27.91;41.65;101578.73;1725108;83;21443;-83
2021/07/09 16:37:40;;;;;;;14.73;3.50;;;;;;;27.85;41.63;101580.34;1725215;83;21440;-81
2021/07/09 16:40:08;;;;;;;7.03;3.20;;;;;;;27.82;42.12;101576.72;1725138;83;21156;-82
2021/07/09 16:42:35;;;;;;;11.12;3.70;;;;;;;27.77;41.89;101574.61;1724874;83;21059;-82
2021/07/09 16:45:02;;;;;;;8.43;3.80;;;;;;;27.72;41.72;101572.21;1725100;83;21047;-82
2021/07/09 16:47:30;;;;;;;19.48;4.12;;;;;;;27.65;41.83;101573.98;1725193;83;21030;-84
2021/07/09 16:49:57;;;;;;;13.72;4.62;;;;;;;27.57;42.04;101566.92;1725065;83;21047;-80
2021/07/09 16:52:24;;;;;;;22.15;4.53;;;;;;;27.51;42.27;101572.19;1725292;83;21148;-83
2021/07/09 16:54:53;;;;;;;12.55;4.22;;;;;;;27.44;42.62;101560.66;1725291;83;21031;-82
2021/07/09 16:57:21;;;;;;;7.50;4.03;;;;;;;27.39;43.18;101572.34;1725339;83;21491;-84
2021/07/09 16:59:48;;;;;;;10.48;4.15;;;;;;;27.30;43.21;101557.81;1725239;83;21095;-83
2021/07/09 17:02:15;;;;;;;13.40;3.83;;;;;;;27.23;43.43;101553.41;1724995;83;20992;-85
2021/07/09 17:04:43;;;;;;;9.98;3.72;;;;;;;27.15;43.51;101558.37;1725278;83;21102;-82
2021/07/09 17:07:11;;;;;;;9.85;3.87;;;;;;;27.10;43.56;101558.08;1725168;83;21622;-84
2021/07/09 17:09:42;;;;;;;11.90;4.12;;;;;;;27.05;43.78;101551.17;1725217;83;20937;-82
2021/07/09 17:12:10;;;;;;;11.93;3.37;;;;;;;26.99;43.65;101555.92;1725166;83;20906;-83
2021/07/09 17:14:38;;;;;;;11.00;3.20;;;;;;;26.92;43.60;101556.34;1725069;83;20869;-84
2021/07/09 17:17:05;;;;;;;12.78;3.37;;;;;;;26.84;43.38;101552.43;1725151;83;21179;-83
2021/07/09 17:19:32;;;;;;;16.65;3.92;;;;;;;26.78;44.11;101550.48;1724923;83;21026;-84
2021/07/09 17:21:59;;;;;;;10.78;3.42;;;;;;;26.72;44.32;101552.05;1725017;83;20952;-84
2021/07/09 17:24:25;;;;;;;11.93;3.70;;;;;;;26.68;45.20;101548.09;1725268;83;20960;-84
2021/07/09 17:26:52;;;;;;;11.38;3.55;;;;;;;26.64;45.36;101545.50;1707948;83;21085;-84
2021/07/09 17:29:19;;;;;;;15.35;3.58;;;;;;;26.59;45.24;101542.55;1691277;84;21146;-84
2021/07/09 17:31:47;;;;;;;15.28;4.50;;;;;;;26.53;45.59;101546.45;1691077;83;20938;-84
2021/07/09 17:34:14;;;;;;;9.35;3.75;;;;;;;26.47;45.75;101545.86;1691337;84;20998;-84
2021/07/09 17:36:42;;;;;;;11.18;4.00;;;;;;;26.38;46.38;101549.63;1691161;84;21512;-84
2021/07/09 17:39:10;;;;;;;16.90;4.22;;;;;;;26.31;46.61;101554.84;1691195;84;21465;-84
2021/07/09 17:41:37;;;;;;;16.00;4.40;;;;;;;26.21;47.24;101551.61;1691150;84;22098;-84
2021/07/09 17:44:05;;;;;;;12.58;4.85;;;;;;;26.14;48.02;101549.31;1690958;84;21504;-84
2021/07/09 17:46:32;;;;;;;13.90;4.70;;;;;;;26.05;48.31;101545.92;1691167;84;20950;-84
2021/07/09 17:48:59;;;;;;;14.07;5.47;;;;;;;25.96;49.09;101548.33;1691032;84;21540;-84
2021/07/09 17:51:27;;;;;;;16.85;6.03;;;;;;;25.87;48.86;101545.42;1691297;84;20985;-84
2021/07/09 17:53:54;;;;;;;24.10;6.83;;;;;;;25.78;48.86;101555.81;1691250;84;21154;-84
2021/07/09 17:56:21;;;;;;;21.73;6.80;;;;;;;25.71;48.99;101552.20;1691111;84;21018;-84
2021/07/09 17:58:48;;;;;;;40.63;7.53;;;;;;;25.63;49.15;101551.75;1691365;84;21493;-83
2021/07/09 18:01:15;;;;;;;26.37;7.55;;;;;;;25.57;49.85;101552.96;1691004;84;21509;-84
2021/07/09 18:03:42;;;;;;;23.73;7.33;;;;;;;25.49;50.19;101549.02;1691014;84;21504;-83
2021/07/09 18:06:09;;;;;;;27.07;6.92;;;;;;;25.42;50.20;101552.88;1691064;84;21422;-84
2021/07/09 18:08:37;;;;;;;23.32;7.70;;;;;;;25.37;50.80;101550.43;1691170;84;21430;-83
2021/07/09 18:11:06;;;;;;;19.77;7.35;;;;;;;25.30;52.02;101552.95;1691083;84;21496;-83
2021/07/09 18:13:32;;;;;;;23.00;7.50;;;;;;;25.23;52.12;101557.31;1691245;84;21508;-83
2021/07/09 18:15:59;;;;;;;19.02;7.87;;;;;;;25.15;52.16;101556.84;1691095;84;21615;-83
2021/07/09 18:18:26;;;;;;;26.97;7.28;;;;;;;25.09;52.24;101560.69;1691392;84;21162;-83
2021/07/09 18:20:53;;;;;;;18.95;6.67;;;;;;;25.03;52.60;101564.05;1691393;84;20986;-82
2021/07/09 18:23:23;;;;;;;19.37;6.62;;;;;;;24.98;52.76;101568.56;1691433;84;21528;-83
2021/07/09 18:25:48;;;;;;;15.80;6.65;;;;;;;24.93;54.94;101570.89;1691017;84;20930;-82
2021/07/09 18:28:17;;;;;;;26.85;7.20;;;;;;;24.87;53.91;101571.59;1651593;84;21063;-83
2021/07/09 18:30:44;;;;;;;17.60;7.05;;;;;;;24.82;55.01;101572.61;1671181;85;21564;-83
2021/07/09 18:33:11;;;;;;;27.98;8.20;;;;;;;24.74;53.89;101576.08;1671148;85;20995;-82
2021/07/09 18:35:39;;;;;;;28.52;8.68;;;;;;;24.68;54.13;101580.75;1671262;85;20964;-83
2021/07/09 18:38:09;;;;;;;25.82;7.50;;;;;;;24.62;54.38;101577.95;1671936;85;20976;-83
2021/07/09 18:40:39;;;;;;;23.10;7.78;;;;;;;24.56;54.76;101577.30;1671257;85;21525;-82
2021/07/09 18:43:08;;;;;;;22.15;7.50;;;;;;;24.51;55.34;101583.59;1671162;85;21151;-82
2021/07/09 18:45:35;;;;;;;25.68;7.47;;;;;;;24.43;55.92;101573.84;1671196;85;21089;-82
2021/07/09 18:48:04;;;;;;;24.57;7.97;;;;;;;24.37;56.02;101582.48;1671246;85;21086;-82
2021/07/09 18:50:31;;;;;;;22.62;8.65;;;;;;;24.34;57.28;101578.02;1671315;85;20905;-82
2021/07/09 18:52:57;;;;;;;27.65;9.18;;;;;;;24.31;56.97;101582.33;1671227;85;21446;-82
2021/07/09 18:55:30;;;;;;;25.40;9.50;;;;;;;24.28;58.35;101579.52;1671305;85;21163;-82
2021/07/09 18:58:00;;;;;;;40.15;11.12;;;;;;;24.24;57.80;101578.19;1671309;85;21599;-82
2021/07/09 19:00:28;;;;;;;36.25;12.23;;;;;;;24.20;58.18;101575.04;1671122;85;20955;-82
2021/07/09 19:02:54;;;;;;;39.30;11.73;;;;;;;24.16;59.40;101580.34;1671209;85;21018;-82
2021/07/09 19:05:21;;;;;;;44.83;14.23;;;;;;;24.12;59.67;101582.19;1671436;85;21141;-82
2021/07/09 19:07:51;;;;;;;34.45;12.55;;;;;;;24.07;60.81;101573.85;1671356;85;21770;-82
2021/07/09 19:10:22;;;;;;;46.73;13.08;;;;;;;24.01;60.01;101577.17;1671008;85;21074;-82
2021/07/09 19:12:51;;;;;;;51.50;14.65;;;;;;;23.95;60.92;101576.02;1671502;85;21027;-82
2021/07/09 19:15:19;;;;;;;44.90;14.47;;;;;;;23.90;61.13;101571.70;1671451;85;21572;-81
2021/07/09 19:17:53;;;;;;;44.77;13.75;;;;;;;23.84;61.29;101572.36;1671051;85;21607;-81
2021/07/09 19:20:23;;;;;;;52.40;15.15;;;;;;;23.78;61.03;101579.65;1671326;85;21727;-82
2021/07/09 19:22:50;;;;;;;48.38;14.58;;;;;;;23.73;61.18;101575.34;1671369;85;20994;-82
2021/07/09 19:25:18;;;;;;;39.08;12.33;;;;;;;23.67;62.39;101574.19;1671129;85;21014;-82
2021/07/09 19:27:44;;;;;;;38.58;12.80;;;;;;;23.62;63.23;101574.33;1683285;83;21028;-82
2021/07/09 19:30:12;;;;;;;35.63;13.10;;;;;;;23.54;63.21;101571.19;1691351;84;20991;-81
2021/07/09 19:32:42;;;;;;;48.00;14.90;;;;;;;23.48;64.11;101567.87;1691353;84;21160;-81
2021/07/09 19:35:09;;;;;;;47.98;16.52;;;;;;;23.43;63.88;101561.38;1691274;84;20981;-82
2021/07/09 19:37:37;;;;;;;40.60;17.67;;;;;;;23.38;64.37;101566.31;1691458;84;20977;-82
2021/07/09 19:40:07;;;;;;;58.55;21.68;;;;;;;23.33;64.97;101567.28;1691488;84;21501;-81
2021/07/09 19:42:36;;;;;;;58.05;20.70;;;;;;;23.27;64.60;101570.58;1691092;84;21568;-81
2021/07/09 19:45:04;;;;;;;65.45;20.85;;;;;;;23.22;64.71;101569.75;1691332;84;21182;-81
2021/07/09 19:47:32;;;;;;;52.35;18.77;;;;;;;23.19;65.16;101570.08;1690915;84;20883;-82
2021/07/09 19:50:03;;;;;;;66.07;19.62;;;;;;;23.16;65.86;101571.23;1691150;84;21507;-81
2021/07/09 19:52:31;;;;;;;61.10;21.05;;;;;;;23.14;66.19;101571.04;1691369;84;20975;-81
2021/07/09 19:54:58;;;;;;;52.38;20.15;;;;;;;23.08;66.91;101561.92;1691530;84;21037;-81
2021/07/09 19:57:25;;;;;;;51.53;21.68;;;;;;;23.03;66.68;101564.23;1691348;84;21844;-81